createdAt,value
2022-12-01T00:00:16.116Z,100994.56
2022-12-01T00:03:18.099Z,100986.72
2022-12-01T00:06:21.535Z,100995.47
2022-12-01T00:09:42.176Z,100995.53
2022-12-01T00:12:44.062Z,100999.41
2022-12-01T00:15:46.660Z,100994.09
2022-12-01T00:18:52.861Z,100994.06
2022-12-01T00:21:54.666Z,100981.91
2022-12-01T00:24:56.524Z,100992.34
2022-12-01T00:27:58.955Z,100981.09
2022-12-01T00:31:00.866Z,100986.28
2022-12-01T00:34:05.693Z,100983.75
2022-12-01T00:37:11.515Z,100992.53
2022-12-01T00:40:13.949Z,100990.16
2022-12-01T00:43:15.776Z,100985.75
2022-12-01T00:46:18.402Z,100984.78
2022-12-01T00:49:20.244Z,100977.81
2022-12-01T00:52:22.224Z,100984.94
2022-12-01T00:55:24.127Z,100980.66
2022-12-01T00:58:26.207Z,100972.91
2022-12-01T01:01:28.104Z,100982.41
2022-12-01T01:04:31.108Z,100985.03
2022-12-01T01:07:33.127Z,100986.91
2022-12-01T01:10:43.181Z,100992.34
2022-12-01T01:13:45.029Z,100989.00
2022-12-01T01:16:46.872Z,100988.09
2022-12-01T01:19:49.092Z,100998.75
2022-12-01T01:22:51.110Z,101002.19
2022-12-01T01:25:52.988Z,101004.97
2022-12-01T01:28:57.542Z,100998.03
2022-12-01T01:31:59.352Z,100996.22
2022-12-01T01:35:01.258Z,100984.94
2022-12-01T01:38:03.066Z,100981.50
2022-12-01T01:41:06.440Z,100964.88
2022-12-01T01:44:45.903Z,100971.13
2022-12-01T01:47:50.075Z,100960.00
2022-12-01T01:50:51.933Z,100953.84
2022-12-01T01:53:58.896Z,100966.06
2022-12-01T01:57:02.426Z,100961.91
2022-12-01T02:00:13.932Z,100955.00
2022-12-01T02:03:18.392Z,100963.78
2022-12-01T02:06:22.804Z,100961.09
2022-12-01T02:09:24.839Z,100955.91
2022-12-01T02:12:53.804Z,100961.38
2022-12-01T02:16:16.793Z,100975.50
2022-12-01T02:19:50.007Z,100965.78
2022-12-01T02:23:13.142Z,100975.38
2022-12-01T02:26:43.815Z,100965.72
2022-12-01T02:29:57.502Z,100963.16
2022-12-01T02:33:12.118Z,100960.56
2022-12-01T02:36:34.937Z,100952.78
2022-12-01T02:39:45.513Z,100955.22
2022-12-01T02:43:05.285Z,100950.97
2022-12-01T02:46:14.554Z,100949.25
2022-12-01T02:49:20.776Z,100965.09
2022-12-01T02:52:24.580Z,100957.16
2022-12-01T02:55:26.390Z,100963.28
2022-12-01T02:58:28.244Z,100968.56
2022-12-01T03:01:45.196Z,100959.75
2022-12-01T03:05:10.154Z,100965.91
2022-12-01T03:08:32.744Z,100965.84
2022-12-01T03:11:46.440Z,100958.84
2022-12-01T03:15:13.578Z,100955.44
2022-12-01T03:18:15.411Z,100961.56
2022-12-01T03:21:32.219Z,100959.69
2022-12-01T03:24:34.920Z,100975.53
2022-12-01T03:28:00.586Z,100971.78
2022-12-01T03:31:09.025Z,100964.91
2022-12-01T03:34:24.192Z,100963.91
2022-12-01T03:37:45.573Z,100975.31
2022-12-01T03:40:50.978Z,100984.06
2022-12-01T03:44:02.208Z,100969.94
2022-12-01T03:47:08.057Z,100982.28
2022-12-01T03:50:14.297Z,100982.06
2022-12-01T03:53:24.092Z,100986.56
2022-12-01T03:56:44.462Z,100986.41
2022-12-01T03:59:47.810Z,100971.84
2022-12-01T04:02:56.343Z,100971.78
2022-12-01T04:05:58.294Z,100985.72
2022-12-01T04:09:00.192Z,100989.03
2022-12-01T04:12:20.716Z,100986.56
2022-12-01T04:15:22.539Z,100989.94
2022-12-01T04:18:24.579Z,100990.03
2022-12-01T04:21:26.424Z,100983.97
2022-12-01T04:24:28.267Z,100990.91
2022-12-01T04:27:30.063Z,100987.38
2022-12-01T04:30:31.896Z,100983.97
2022-12-01T04:33:33.753Z,100994.44
2022-12-01T04:36:35.945Z,100983.97
2022-12-01T04:39:38.406Z,100987.41
2022-12-01T04:42:40.295Z,100995.38
2022-12-01T04:45:42.207Z,100988.41
2022-12-01T04:48:44.244Z,100988.44
2022-12-01T04:51:46.140Z,100993.84
2022-12-01T04:54:48.034Z,100994.78
2022-12-01T04:57:49.891Z,100993.75
2022-12-01T05:00:51.851Z,101002.66
2022-12-01T05:03:53.805Z,101001.75
2022-12-01T05:06:55.778Z,101012.25
2022-12-01T05:09:58.138Z,101013.22
2022-12-01T05:13:00.518Z,101015.78
2022-12-01T05:16:11.264Z,101010.72
2022-12-01T05:19:31.517Z,101018.50
2022-12-01T05:23:03.855Z,101014.88
2022-12-01T05:25:56.019Z,101015.84
2022-12-01T05:28:57.945Z,101015.78
2022-12-01T05:31:59.964Z,101012.25
2022-12-01T05:35:01.828Z,101013.97
2022-12-01T05:38:07.786Z,101020.22
2022-12-01T05:41:10.533Z,101024.84
2022-12-01T05:44:12.351Z,101019.25
2022-12-01T05:47:14.218Z,101018.25
2022-12-01T05:50:16.263Z,101021.03
2022-12-01T05:53:18.562Z,101024.47
2022-12-01T05:56:20.507Z,101013.09
2022-12-01T05:59:22.407Z,101026.16
2022-12-01T06:02:27.003Z,101025.22
2022-12-01T06:05:29.004Z,101026.81
2022-12-01T06:08:30.962Z,101026.03
2022-12-01T06:11:32.828Z,101025.25
2022-12-01T06:14:34.678Z,101017.34
2022-12-01T06:17:40.170Z,101020.00
2022-12-01T06:20:42.335Z,101024.19
2022-12-01T06:23:44.217Z,101018.94
2022-12-01T06:26:46.097Z,101034.53
2022-12-01T06:29:49.704Z,101026.53
2022-12-01T06:32:51.831Z,101027.47
2022-12-01T06:36:01.339Z,101028.16
2022-12-01T06:39:10.154Z,101026.34
2022-12-01T06:42:12.361Z,101044.75
2022-12-01T06:45:14.405Z,101035.91
2022-12-01T06:48:16.460Z,101035.72
2022-12-01T06:51:18.875Z,101037.59
2022-12-01T06:54:21.434Z,101037.41
2022-12-01T06:57:23.226Z,101030.16
2022-12-01T07:00:25.590Z,101039.63
2022-12-01T07:03:27.499Z,101041.19
2022-12-01T07:06:33.041Z,101046.34
2022-12-01T07:09:35.069Z,101038.41
2022-12-01T07:12:37.196Z,101050.66
2022-12-01T07:15:39.005Z,101052.38
2022-12-01T07:18:40.967Z,101049.69
2022-12-01T07:21:42.874Z,101044.16
2022-12-01T07:24:44.736Z,101043.19
2022-12-01T07:27:46.551Z,101051.56
2022-12-01T07:30:48.769Z,101056.66
2022-12-01T07:33:50.683Z,101053.91
2022-12-01T07:36:52.547Z,101052.78
2022-12-01T07:39:54.386Z,101050.00
2022-12-01T07:42:56.239Z,101040.94
2022-12-01T07:46:04.507Z,101044.44
2022-12-01T14:15:42.457Z,100763.69
2022-12-01T14:18:51.959Z,100768.09
2022-12-01T14:21:54.072Z,100762.75
2022-12-01T14:24:56.038Z,100759.25
2022-12-01T14:28:03.542Z,100764.00
2022-12-01T14:31:06.446Z,100756.81
2022-12-01T14:34:13.165Z,100749.84
2022-12-01T14:37:21.695Z,100749.72
2022-12-01T14:40:25.695Z,100761.38
2022-12-01T14:43:47.254Z,100759.47
2022-12-01T14:46:54.876Z,100772.69
2022-12-01T14:50:03.028Z,100772.69
2022-12-01T14:53:22.023Z,100763.00
2022-12-01T14:56:25.876Z,100769.53
2022-12-01T14:59:28.028Z,100774.47
2022-12-01T15:02:30.034Z,100773.94
2022-12-01T15:05:37.719Z,100773.69
2022-12-01T15:08:45.884Z,100767.50
2022-12-01T15:11:53.046Z,100777.09
2022-12-01T15:14:55.023Z,100771.91
2022-12-01T15:17:58.070Z,100779.03
2022-12-01T15:21:12.130Z,100781.59
2022-12-01T15:24:28.677Z,100793.91
2022-12-01T15:27:33.477Z,100798.56
2022-12-01T15:30:35.766Z,100806.47
2022-12-01T15:33:39.119Z,100803.97
2022-12-01T15:36:44.715Z,100796.91
2022-12-01T15:39:53.009Z,100797.09
2022-12-01T15:43:08.416Z,100803.41
2022-12-01T15:46:16.329Z,100793.88
2022-12-01T15:49:24.665Z,100793.81
2022-12-01T15:52:33.167Z,100794.59
2022-12-01T15:55:38.455Z,100796.56
2022-12-01T15:58:46.039Z,100795.16
2022-12-01T16:01:48.199Z,100791.53
2022-12-01T16:05:04.319Z,100797.78
2022-12-01T16:08:17.518Z,100810.28
2022-12-01T16:11:22.666Z,100792.91
2022-12-01T16:14:33.732Z,100792.09
2022-12-01T16:17:54.014Z,100792.91
2022-12-01T16:21:02.974Z,100796.13
2022-12-01T16:24:06.256Z,100796.31
2022-12-01T16:27:26.133Z,100795.59
2022-12-01T16:30:35.006Z,100793.69
2022-12-01T16:33:39.570Z,100786.84
2022-12-01T16:36:42.589Z,100788.41
2022-12-01T16:39:46.551Z,100781.56
2022-12-01T16:42:53.440Z,100774.16
2022-12-01T16:46:03.763Z,100785.84
2022-12-01T16:49:06.733Z,100781.13
2022-12-01T16:52:36.500Z,100772.31
2022-12-01T16:55:37.399Z,100776.78
2022-12-01T16:58:39.210Z,100774.28
2022-12-01T17:01:41.519Z,100778.31
2022-12-01T17:04:43.460Z,100793.50
2022-12-01T17:07:45.445Z,100791.84
2022-12-01T17:10:50.488Z,100788.13
2022-12-01T17:13:55.814Z,100782.84
2022-12-01T17:17:00.392Z,100788.00
2022-12-01T17:20:03.239Z,100795.22
2022-12-01T17:23:08.088Z,100795.34
2022-12-01T17:26:15.596Z,100790.06
2022-12-01T17:29:21.077Z,100790.00
2022-12-01T17:32:25.452Z,100791.91
2022-12-01T17:35:27.260Z,100784.69
2022-12-01T17:38:34.905Z,100793.88
2022-12-01T17:41:38.147Z,100794.13
2022-12-01T17:49:51.555Z,100797.78
2022-12-01T17:52:53.472Z,100789.09
2022-12-01T17:55:55.505Z,100794.41
2022-12-01T17:58:57.556Z,100797.09
2022-12-01T18:01:59.482Z,100797.41
2022-12-01T18:05:01.359Z,100789.56
2022-12-01T18:08:03.254Z,100789.63
2022-12-01T18:11:12.684Z,100794.94
2022-12-01T18:14:17.925Z,100804.97
2022-12-01T18:17:19.947Z,100796.91
2022-12-01T18:20:21.805Z,100806.63
2022-12-01T18:23:23.970Z,100797.50
2022-12-01T18:26:28.930Z,100809.09
2022-12-01T18:29:30.769Z,100804.59
2022-12-01T18:32:32.715Z,100797.78
2022-12-01T18:35:34.579Z,100802.97
2022-12-01T18:38:37.517Z,100805.03
2022-12-01T18:41:40.355Z,100806.00
2022-12-01T18:44:42.514Z,100813.97
2022-12-01T18:47:44.836Z,100818.25
2022-12-01T18:50:47.039Z,100832.38
2022-12-01T18:53:53.114Z,100824.69
2022-12-01T18:56:58.826Z,100828.41
2022-12-01T19:00:00.765Z,100817.09
2022-12-01T19:03:03.488Z,100809.25
2022-12-01T19:06:07.196Z,100832.28
2022-12-01T19:09:12.642Z,100822.69
2022-12-01T19:12:15.123Z,100824.78
2022-12-01T19:15:17.160Z,100817.06
2022-12-01T19:19:15.590Z,100833.00
2022-12-01T19:22:36.281Z,100834.06
2022-12-01T19:25:38.213Z,100843.88
2022-12-01T19:28:42.291Z,100835.06
2022-12-01T19:31:44.310Z,100842.22
2022-12-01T19:34:46.382Z,100839.56
2022-12-01T19:37:48.252Z,100833.63
2022-12-01T19:40:52.586Z,100837.41
2022-12-01T19:43:55.134Z,100834.03
2022-12-01T19:46:57.215Z,100826.25
2022-12-01T19:50:00.768Z,100828.84
2022-12-01T19:53:02.759Z,100839.69
2022-12-01T19:56:05.533Z,100836.25
2022-12-01T19:59:08.133Z,100846.00
2022-12-01T20:02:10.764Z,100835.81
2022-12-01T20:05:13.775Z,100843.81
2022-12-01T20:08:15.493Z,100843.97
2022-12-01T20:11:17.991Z,100854.44
2022-12-01T20:14:19.844Z,100852.81
2022-12-01T20:17:21.770Z,100839.31
2022-12-01T20:20:23.672Z,100848.03
2022-12-01T20:23:25.516Z,100851.38
2022-12-01T20:26:34.148Z,100842.69
2022-12-01T20:29:36.050Z,100850.75
2022-12-01T20:32:37.936Z,100841.44
2022-12-01T20:35:39.787Z,100844.22
2022-12-01T20:38:41.695Z,100846.69
2022-12-01T20:41:44.895Z,100854.66
2022-12-01T20:44:46.859Z,100844.16
2022-12-01T20:47:48.781Z,100853.03
2022-12-01T20:50:50.681Z,100849.50
2022-12-01T20:54:19.823Z,100855.56
2022-12-01T20:57:14.404Z,100860.72
2022-12-01T21:00:17.225Z,100852.22
2022-12-01T21:03:19.131Z,100856.66
2022-12-01T21:06:21.296Z,100857.56
2022-12-01T21:09:23.117Z,100864.59
2022-12-01T21:12:44.220Z,100860.16
2022-12-01T21:16:01.893Z,100850.56
2022-12-01T21:19:13.832Z,100853.41
2022-12-01T21:22:15.739Z,100857.03
2022-12-01T21:25:22.409Z,100854.38
2022-12-01T21:28:25.763Z,100859.56
2022-12-01T21:31:27.776Z,100855.19
2022-12-01T21:34:30.248Z,100850.94
2022-12-01T21:37:32.130Z,100851.78
2022-12-01T21:40:34.348Z,100856.13
2022-12-01T21:43:38.374Z,100851.78
2022-12-01T21:46:42.426Z,100855.41
2022-12-01T21:49:45.494Z,100859.69
2022-12-01T21:52:48.063Z,100852.81
2022-12-01T21:55:49.852Z,100852.88
2022-12-01T21:58:52.652Z,100856.31
2022-12-01T22:01:56.675Z,100845.91
2022-12-01T22:04:59.675Z,100852.09
2022-12-01T22:08:13.439Z,100843.47
2022-12-01T22:11:15.220Z,100846.97
2022-12-01T22:14:21.588Z,100848.56
2022-12-01T22:17:23.429Z,100839.97
2022-12-01T22:20:25.319Z,100834.72
2022-12-01T22:23:36.205Z,100827.75
2022-12-01T22:26:41.644Z,100828.53
2022-12-01T22:29:48.854Z,100829.31
2022-12-01T22:32:59.846Z,100820.53
2022-12-01T22:36:01.756Z,100831.25
2022-12-01T22:39:22.588Z,100832.97
2022-12-01T22:42:32.769Z,100834.00
2022-12-01T22:45:34.663Z,100829.66
2022-12-01T22:48:41.975Z,100822.44
2022-12-01T22:51:48.417Z,100821.72
2022-12-01T22:54:50.448Z,100840.06
2022-12-01T22:57:52.611Z,100837.50
2022-12-01T23:00:57.927Z,100841.66
2022-12-01T23:04:27.244Z,100838.25
2022-12-01T23:07:30.530Z,100829.63
2022-12-01T23:10:34.947Z,100835.03
2022-12-01T23:13:36.750Z,100834.13
2022-12-01T23:16:40.239Z,100830.91
2022-12-01T23:19:42.194Z,100828.25
2022-12-01T23:22:44.057Z,100832.84
2022-12-01T23:25:48.730Z,100836.25
2022-12-01T23:28:50.564Z,100829.25
2022-12-01T23:31:52.558Z,100829.16
2022-12-01T23:34:59.977Z,100832.69
2022-12-01T23:38:02.289Z,100837.13
2022-12-01T23:41:12.765Z,100846.56
2022-12-01T23:44:22.519Z,100836.94
2022-12-01T23:47:29.401Z,100835.34
2022-12-01T23:50:31.611Z,100846.69
2022-12-01T23:53:33.755Z,100849.16
2022-12-01T23:56:38.046Z,100837.88
2022-12-01T23:59:39.908Z,100830.09
